• Join FlightAware (Why Join?)
  • Login
  • US Flag 
05:14PM EDT


 

Airport Tracker/Info


-or-


 

Live Flight TrackerFlight Track Log ✈ SLI2119 ✈ 10-Oct-2013 ✈ MMLP / LAP - MMGL / GDL

Flight Track Log - Related Links

Times and Time Zones

All times are in EDT time to prevent confusion due to time zone crossing. See the SLI2119 flight status page for this flight to view local times or setup timezone preferences in your user account.

Time Position Orientation Groundspeed Altitude Reporting Facility
EDT Latitude Longitude Course Direction KTS MPH feet Rate Location/Type
08:37PM 23.7886 -109.7605 117° Southeast  Level Estimated
08:38PM 23.7410 -109.6604 117° Southeast  Level Estimated
08:39PM 23.6934 -109.5604 117° Southeast  Level Estimated
08:40PM 23.6457 -109.4604 118° Southeast  Level Estimated
08:41PM 23.5979 -109.3606 118° Southeast  Level Estimated
08:42PM 23.5501 -109.2608 118° Southeast  Level Estimated
08:43PM 23.5022 -109.1611 118° Southeast  Level Estimated
08:44PM 23.4542 -109.0614 118° Southeast  Level Estimated
08:45PM 23.4062 -108.9619 118° Southeast  Level Estimated
08:46PM 23.3581 -108.8624 118° Southeast  Level Estimated
08:47PM 23.3100 -108.7629 118° Southeast  Level Estimated
08:48PM 23.2617 -108.6636 118° Southeast  Level Estimated
08:49PM 23.2135 -108.5643 118° Southeast  Level Estimated
08:50PM 23.1651 -108.4651 118° Southeast  Level Estimated
08:51PM 23.1167 -108.3660 118° Southeast  Level Estimated
08:52PM 23.0683 -108.2669 118° Southeast  Level Estimated
08:53PM 23.0198 -108.1679 118° Southeast  Level Estimated
08:54PM 22.9712 -108.0690 118° Southeast  Level Estimated
08:55PM 22.9225 -107.9701 118° Southeast  Level Estimated
08:56PM 22.8738 -107.8714 118° Southeast  Level Estimated
08:57PM 22.8251 -107.7727 118° Southeast  Level Estimated
08:58PM 22.7762 -107.6740 118° Southeast  Level Estimated
08:59PM 22.7273 -107.5754 118° Southeast  Level Estimated
09:00PM 22.6784 -107.4769 118° Southeast  Level Estimated
09:01PM 22.6294 -107.3785 118° Southeast  Level Estimated
09:02PM 22.5803 -107.2802 118° Southeast  Level Estimated
09:03PM 22.5312 -107.1819 118° Southeast  Level Estimated
09:04PM 22.4820 -107.0836 118° Southeast  Level Estimated
09:05PM 22.4327 -106.9855 118° Southeast  Level Estimated
09:06PM 22.3834 -106.8874 119° Southeast  Level Estimated
09:07PM 22.3341 -106.7894 119° Southeast  Level Estimated
09:08PM 22.2846 -106.6915 119° Southeast  Level Estimated
09:09PM 22.2352 -106.5936 119° Southeast  Level Estimated
09:10PM 22.1856 -106.4958 119° Southeast  Level Estimated
09:11PM 22.1360 -106.3981 119° Southeast  Level Estimated
09:12PM 22.0864 -106.3004 119° Southeast  Level Estimated
09:13PM 22.0366 -106.2028 119° Southeast  Level Estimated
09:14PM 21.9869 -106.1053 119° Southeast  Level Estimated
09:15PM 21.9370 -106.0078 119° Southeast  Level Estimated
09:16PM 21.8871 -105.9104 119° Southeast  Level Estimated
09:17PM 21.8372 -105.8131 119° Southeast  Level Estimated
09:18PM 21.7872 -105.7159 119° Southeast  Level Estimated
09:19PM 21.7371 -105.6187 119° Southeast  Level Estimated
09:20PM 21.6870 -105.5216 119° Southeast  Level Estimated
09:21PM 21.6369 -105.4245 119° Southeast  Level Estimated
09:22PM 21.5866 -105.3275 119° Southeast  Level Estimated
09:23PM 21.5363 -105.2306 119° Southeast  Level Estimated
09:24PM 21.4860 -105.1338 119° Southeast  Level Estimated
09:25PM 21.4356 -105.0370 119° Southeast  Level Estimated
09:26PM 21.3851 -104.9403 119° Southeast  Level Estimated
09:27PM 21.3346 -104.8436 119° Southeast  Level Estimated
09:28PM 21.2841 -104.7470 119° Southeast  Level Estimated
09:29PM 21.2334 -104.6505 119° Southeast  Level Estimated
09:30PM 21.1828 -104.5541 119° Southeast  Level Estimated
09:31PM 21.1320 -104.4577 119° Southeast  Level Estimated
09:32PM 21.0813 -104.3614 119° Southeast  Level Estimated
09:33PM 21.0304 -104.2651 119° Southeast  Level Estimated
09:34PM 20.9795 -104.1689 120° Southeast  Level Estimated
09:35PM 20.9286 -104.0728 120° Southeast  Level Estimated
09:36PM 20.8776 -103.9768 120° Southeast  Level Estimated
09:37PM 20.8265 -103.8808 120° Southeast  Level Estimated
09:38PM 20.7754 -103.7849 120° Southeast  Level Estimated
09:39PM 20.7243 -103.6890 120° Southeast  Level Estimated
09:40PM 20.6731 -103.5932 120° Southeast  Level Estimated
09:41PM 20.6218 -103.4975 120° Southeast  Level Estimated
09:42PM 20.5705 -103.4018 120° Southeast  Level Estimated
09:43PM 20.5218 -103.3112 120° Southeast  Level Estimated
09:44PM 20.5218 -103.3112 90° East  Level Estimated
09:45PM 20.5218 -103.3112 90° East  Level Estimated
09:46PM 20.5218 -103.3112 90° East  Level Estimated
09:47PM 20.5218 -103.3112 90° East  Level Estimated
09:48PM 20.5218 -103.3112 90° East  Level Estimated
09:49PM 20.5218 -103.3112 90° East  Level Estimated
09:50PM 20.5218 -103.3112 90° East  Level Estimated
09:51PM 20.5218 -103.3112 90° East  Level Estimated